sensor_id;sensor_type;location;lat;lon;timestamp;temperature;humidity
66140;DHT22;52945;51.908;8.364;2024-03-06T00:00:57;9.90;76.10
66140;DHT22;52945;51.908;8.364;2024-03-06T00:03:57;9.90;76.00
66140;DHT22;52945;51.908;8.364;2024-03-06T00:06:58;9.90;76.20
66140;DHT22;52945;51.908;8.364;2024-03-06T00:09:58;9.90;76.10
66140;DHT22;52945;51.908;8.364;2024-03-06T00:12:59;9.90;76.00
66140;DHT22;52945;51.908;8.364;2024-03-06T00:16:00;9.90;75.90
66140;DHT22;52945;51.908;8.364;2024-03-06T00:19:00;9.80;76.00
66140;DHT22;52945;51.908;8.364;2024-03-06T00:22:03;9.80;76.00
66140;DHT22;52945;51.908;8.364;2024-03-06T00:25:04;9.90;76.00
66140;DHT22;52945;51.908;8.364;2024-03-06T00:28:05;9.90;75.90
66140;DHT22;52945;51.908;8.364;2024-03-06T00:31:06;9.90;76.00
66140;DHT22;52945;51.908;8.364;2024-03-06T00:34:07;9.90;76.20
66140;DHT22;52945;51.908;8.364;2024-03-06T00:37:07;9.90;76.20
66140;DHT22;52945;51.908;8.364;2024-03-06T00:40:08;9.80;76.40
66140;DHT22;52945;51.908;8.364;2024-03-06T00:43:09;9.90;76.50
66140;DHT22;52945;51.908;8.364;2024-03-06T00:46:09;9.80;76.60
66140;DHT22;52945;51.908;8.364;2024-03-06T00:49:10;9.80;76.50
66140;DHT22;52945;51.908;8.364;2024-03-06T00:52:11;9.80;76.70
66140;DHT22;52945;51.908;8.364;2024-03-06T00:55:11;9.80;76.70
66140;DHT22;52945;51.908;8.364;2024-03-06T00:58:12;9.70;76.60
66140;DHT22;52945;51.908;8.364;2024-03-06T01:01:13;9.70;76.70
66140;DHT22;52945;51.908;8.364;2024-03-06T01:04:13;9.80;77.00
66140;DHT22;52945;51.908;8.364;2024-03-06T01:07:14;9.70;77.00
66140;DHT22;52945;51.908;8.364;2024-03-06T01:10:15;9.70;76.90
66140;DHT22;52945;51.908;8.364;2024-03-06T01:13:15;9.70;76.80
66140;DHT22;52945;51.908;8.364;2024-03-06T01:16:16;9.70;76.90
66140;DHT22;52945;51.908;8.364;2024-03-06T01:19:16;9.70;76.80
66140;DHT22;52945;51.908;8.364;2024-03-06T01:22:17;9.70;77.00
66140;DHT22;52945;51.908;8.364;2024-03-06T01:25:18;9.70;77.10
66140;DHT22;52945;51.908;8.364;2024-03-06T01:28:19;9.70;77.30
66140;DHT22;52945;51.908;8.364;2024-03-06T01:31:19;9.70;77.40
66140;DHT22;52945;51.908;8.364;2024-03-06T01:34:20;9.70;77.20
66140;DHT22;52945;51.908;8.364;2024-03-06T01:37:21;9.70;77.30
66140;DHT22;52945;51.908;8.364;2024-03-06T01:40:21;9.70;77.30
66140;DHT22;52945;51.908;8.364;2024-03-06T01:43:26;9.70;77.30
66140;DHT22;52945;51.908;8.364;2024-03-06T01:46:27;9.70;77.20
66140;DHT22;52945;51.908;8.364;2024-03-06T01:49:28;9.70;77.30
66140;DHT22;52945;51.908;8.364;2024-03-06T01:52:29;9.70;77.20
66140;DHT22;52945;51.908;8.364;2024-03-06T01:55:30;9.70;77.30
66140;DHT22;52945;51.908;8.364;2024-03-06T01:58:30;9.70;77.40
66140;DHT22;52945;51.908;8.364;2024-03-06T02:01:32;9.70;77.30
66140;DHT22;52945;51.908;8.364;2024-03-06T02:04:33;9.70;77.20
66140;DHT22;52945;51.908;8.364;2024-03-06T02:07:34;9.70;77.20
66140;DHT22;52945;51.908;8.364;2024-03-06T02:10:36;9.70;77.20
66140;DHT22;52945;51.908;8.364;2024-03-06T02:13:37;9.70;77.20
66140;DHT22;52945;51.908;8.364;2024-03-06T02:16:38;9.70;77.20
66140;DHT22;52945;51.908;8.364;2024-03-06T02:19:43;9.70;77.20
66140;DHT22;52945;51.908;8.364;2024-03-06T02:22:44;9.70;77.20
66140;DHT22;52945;51.908;8.364;2024-03-06T02:25:44;9.70;77.30
66140;DHT22;52945;51.908;8.364;2024-03-06T02:28:54;9.70;77.40
66140;DHT22;52945;51.908;8.364;2024-03-06T02:31:55;9.70;77.40
66140;DHT22;52945;51.908;8.364;2024-03-06T02:34:55;9.70;77.50
66140;DHT22;52945;51.908;8.364;2024-03-06T02:37:57;9.70;77.50
66140;DHT22;52945;51.908;8.364;2024-03-06T02:40:58;9.70;77.50
66140;DHT22;52945;51.908;8.364;2024-03-06T02:43:58;9.70;77.40
66140;DHT22;52945;51.908;8.364;2024-03-06T02:46:59;9.70;77.40
66140;DHT22;52945;51.908;8.364;2024-03-06T02:50:00;9.70;77.40
66140;DHT22;52945;51.908;8.364;2024-03-06T02:53:00;9.70;77.30
66140;DHT22;52945;51.908;8.364;2024-03-06T02:56:01;9.70;77.20
66140;DHT22;52945;51.908;8.364;2024-03-06T02:59:02;9.70;77.20
66140;DHT22;52945;51.908;8.364;2024-03-06T03:02:03;9.70;77.10
66140;DHT22;52945;51.908;8.364;2024-03-06T03:05:04;9.70;77.10
66140;DHT22;52945;51.908;8.364;2024-03-06T03:08:06;9.70;77.10
66140;DHT22;52945;51.908;8.364;2024-03-06T03:11:06;9.70;77.20
66140;DHT22;52945;51.908;8.364;2024-03-06T03:14:08;9.70;77.30
66140;DHT22;52945;51.908;8.364;2024-03-06T03:17:09;9.70;77.20
66140;DHT22;52945;51.908;8.364;2024-03-06T03:20:10;9.70;77.20
66140;DHT22;52945;51.908;8.364;2024-03-06T03:23:11;9.70;77.20
66140;DHT22;52945;51.908;8.364;2024-03-06T03:26:14;9.70;77.20
66140;DHT22;52945;51.908;8.364;2024-03-06T03:29:15;9.70;77.00
66140;DHT22;52945;51.908;8.364;2024-03-06T03:32:15;9.70;77.00
66140;DHT22;52945;51.908;8.364;2024-03-06T03:35:16;9.70;77.20
66140;DHT22;52945;51.908;8.364;2024-03-06T03:38:21;9.70;77.20
66140;DHT22;52945;51.908;8.364;2024-03-06T03:41:21;9.70;77.20
66140;DHT22;52945;51.908;8.364;2024-03-06T03:44:22;9.70;77.20
66140;DHT22;52945;51.908;8.364;2024-03-06T03:47:22;9.70;77.20
66140;DHT22;52945;51.908;8.364;2024-03-06T03:50:23;9.70;77.30
66140;DHT22;52945;51.908;8.364;2024-03-06T03:53:24;9.70;77.20
66140;DHT22;52945;51.908;8.364;2024-03-06T03:56:24;9.70;77.30
66140;DHT22;52945;51.908;8.364;2024-03-06T03:59:25;9.70;77.40
66140;DHT22;52945;51.908;8.364;2024-03-06T04:02:26;9.70;77.30
66140;DHT22;52945;51.908;8.364;2024-03-06T04:05:26;9.70;77.20
66140;DHT22;52945;51.908;8.364;2024-03-06T04:08:29;9.70;77.10
66140;DHT22;52945;51.908;8.364;2024-03-06T04:11:30;9.70;77.10
66140;DHT22;52945;51.908;8.364;2024-03-06T04:14:33;9.70;77.20
66140;DHT22;52945;51.908;8.364;2024-03-06T04:17:35;9.70;77.20
66140;DHT22;52945;51.908;8.364;2024-03-06T04:20:37;9.70;77.10
66140;DHT22;52945;51.908;8.364;2024-03-06T04:23:37;9.80;77.20
66140;DHT22;52945;51.908;8.364;2024-03-06T04:26:38;9.70;77.10
66140;DHT22;52945;51.908;8.364;2024-03-06T04:29:38;9.80;77.00
66140;DHT22;52945;51.908;8.364;2024-03-06T04:32:39;9.70;76.90
66140;DHT22;52945;51.908;8.364;2024-03-06T04:35:39;9.70;76.90
66140;DHT22;52945;51.908;8.364;2024-03-06T04:38:40;9.80;77.00
66140;DHT22;52945;51.908;8.364;2024-03-06T04:41:40;9.70;77.10
66140;DHT22;52945;51.908;8.364;2024-03-06T04:44:41;9.70;77.00
66140;DHT22;52945;51.908;8.364;2024-03-06T04:47:43;9.70;77.10
66140;DHT22;52945;51.908;8.364;2024-03-06T04:50:44;9.70;77.20
66140;DHT22;52945;51.908;8.364;2024-03-06T04:53:45;9.70;77.20
66140;DHT22;52945;51.908;8.364;2024-03-06T04:56:46;9.70;77.10
66140;DHT22;52945;51.908;8.364;2024-03-06T04:59:46;9.70;77.00
66140;DHT22;52945;51.908;8.364;2024-03-06T05:02:47;9.70;76.90
66140;DHT22;52945;51.908;8.364;2024-03-06T05:05:49;9.70;76.90
66140;DHT22;52945;51.908;8.364;2024-03-06T05:08:50;9.70;76.90
66140;DHT22;52945;51.908;8.364;2024-03-06T05:11:51;9.70;76.80
66140;DHT22;52945;51.908;8.364;2024-03-06T05:14:52;9.70;76.80
66140;DHT22;52945;51.908;8.364;2024-03-06T05:17:53;9.70;76.70
66140;DHT22;52945;51.908;8.364;2024-03-06T05:20:56;9.70;76.60
66140;DHT22;52945;51.908;8.364;2024-03-06T05:23:57;9.70;76.50
66140;DHT22;52945;51.908;8.364;2024-03-06T05:26:57;9.70;76.50
66140;DHT22;52945;51.908;8.364;2024-03-06T05:29:58;9.80;76.50
66140;DHT22;52945;51.908;8.364;2024-03-06T05:32:58;9.70;76.50
66140;DHT22;52945;51.908;8.364;2024-03-06T05:35:59;9.70;76.50
66140;DHT22;52945;51.908;8.364;2024-03-06T05:38:59;9.70;76.50
66140;DHT22;52945;51.908;8.364;2024-03-06T05:42:01;9.70;76.50
66140;DHT22;52945;51.908;8.364;2024-03-06T05:45:05;9.70;76.50
66140;DHT22;52945;51.908;8.364;2024-03-06T05:48:10;9.70;76.60
66140;DHT22;52945;51.908;8.364;2024-03-06T05:51:11;9.80;76.70
66140;DHT22;52945;51.908;8.364;2024-03-06T05:54:12;9.70;76.90
66140;DHT22;52945;51.908;8.364;2024-03-06T05:57:12;9.70;77.00
66140;DHT22;52945;51.908;8.364;2024-03-06T06:00:13;9.70;77.00
66140;DHT22;52945;51.908;8.364;2024-03-06T06:03:14;9.70;77.00
66140;DHT22;52945;51.908;8.364;2024-03-06T06:06:15;9.70;77.10
66140;DHT22;52945;51.908;8.364;2024-03-06T06:09:16;9.70;77.20
66140;DHT22;52945;51.908;8.364;2024-03-06T06:12:17;9.70;77.30
66140;DHT22;52945;51.908;8.364;2024-03-06T06:15:19;9.70;77.30
66140;DHT22;52945;51.908;8.364;2024-03-06T06:18:19;9.70;77.30
66140;DHT22;52945;51.908;8.364;2024-03-06T06:21:20;9.70;77.40
66140;DHT22;52945;51.908;8.364;2024-03-06T06:24:21;9.70;77.30
66140;DHT22;52945;51.908;8.364;2024-03-06T06:27:21;9.70;77.20
66140;DHT22;52945;51.908;8.364;2024-03-06T06:30:22;9.70;77.10
66140;DHT22;52945;51.908;8.364;2024-03-06T06:33:23;9.70;77.00
66140;DHT22;52945;51.908;8.364;2024-03-06T06:36:23;9.70;77.00
66140;DHT22;52945;51.908;8.364;2024-03-06T06:39:24;9.70;77.00
66140;DHT22;52945;51.908;8.364;2024-03-06T06:42:25;9.70;77.00
66140;DHT22;52945;51.908;8.364;2024-03-06T06:45:26;9.70;76.90
66140;DHT22;52945;51.908;8.364;2024-03-06T06:48:26;9.80;76.90
66140;DHT22;52945;51.908;8.364;2024-03-06T06:51:27;9.80;77.00
66140;DHT22;52945;51.908;8.364;2024-03-06T06:54:28;9.70;77.20
66140;DHT22;52945;51.908;8.364;2024-03-06T06:57:28;9.70;77.30
66140;DHT22;52945;51.908;8.364;2024-03-06T07:00:29;9.70;77.30
66140;DHT22;52945;51.908;8.364;2024-03-06T07:03:30;9.70;77.20
66140;DHT22;52945;51.908;8.364;2024-03-06T07:06:31;9.70;77.20
66140;DHT22;52945;51.908;8.364;2024-03-06T07:09:31;9.70;77.20
66140;DHT22;52945;51.908;8.364;2024-03-06T07:12:32;9.80;77.20
66140;DHT22;52945;51.908;8.364;2024-03-06T07:15:33;9.80;77.10
66140;DHT22;52945;51.908;8.364;2024-03-06T07:18:34;9.70;77.30
66140;DHT22;52945;51.908;8.364;2024-03-06T07:21:35;9.80;77.20
66140;DHT22;52945;51.908;8.364;2024-03-06T07:24:36;9.80;77.20
66140;DHT22;52945;51.908;8.364;2024-03-06T07:27:37;9.70;77.20
66140;DHT22;52945;51.908;8.364;2024-03-06T07:30:37;9.70;77.20
66140;DHT22;52945;51.908;8.364;2024-03-06T07:33:38;9.90;77.30
66140;DHT22;52945;51.908;8.364;2024-03-06T07:36:39;9.80;77.30
66140;DHT22;52945;51.908;8.364;2024-03-06T07:39:39;9.80;77.20
66140;DHT22;52945;51.908;8.364;2024-03-06T07:42:40;9.80;77.10
66140;DHT22;52945;51.908;8.364;2024-03-06T07:45:41;9.80;77.20
66140;DHT22;52945;51.908;8.364;2024-03-06T07:48:42;9.80;77.20
66140;DHT22;52945;51.908;8.364;2024-03-06T07:51:46;9.80;77.20
66140;DHT22;52945;51.908;8.364;2024-03-06T07:54:47;9.80;77.30
66140;DHT22;52945;51.908;8.364;2024-03-06T07:57:48;9.90;77.30
66140;DHT22;52945;51.908;8.364;2024-03-06T08:00:48;9.80;77.30
66140;DHT22;52945;51.908;8.364;2024-03-06T08:03:49;9.90;77.40
66140;DHT22;52945;51.908;8.364;2024-03-06T08:06:50;9.90;77.40
66140;DHT22;52945;51.908;8.364;2024-03-06T08:09:50;9.90;77.40
66140;DHT22;52945;51.908;8.364;2024-03-06T08:12:51;9.90;77.20
66140;DHT22;52945;51.908;8.364;2024-03-06T08:15:52;9.90;77.00
66140;DHT22;52945;51.908;8.364;2024-03-06T08:18:53;9.90;76.90
66140;DHT22;52945;51.908;8.364;2024-03-06T08:21:54;9.90;76.80
66140;DHT22;52945;51.908;8.364;2024-03-06T08:24:54;10.00;76.80
66140;DHT22;52945;51.908;8.364;2024-03-06T08:27:55;10.00;76.90
66140;DHT22;52945;51.908;8.364;2024-03-06T08:30:57;10.00;77.00
66140;DHT22;52945;51.908;8.364;2024-03-06T08:33:57;10.10;77.00
66140;DHT22;52945;51.908;8.364;2024-03-06T08:36:58;10.00;77.00
66140;DHT22;52945;51.908;8.364;2024-03-06T08:39:59;10.10;77.10
66140;DHT22;52945;51.908;8.364;2024-03-06T08:43:00;10.10;77.10
66140;DHT22;52945;51.908;8.364;2024-03-06T08:46:00;10.10;77.10
66140;DHT22;52945;51.908;8.364;2024-03-06T08:49:01;10.10;77.00
66140;DHT22;52945;51.908;8.364;2024-03-06T08:52:02;10.10;77.10
66140;DHT22;52945;51.908;8.364;2024-03-06T08:55:03;10.10;77.00
66140;DHT22;52945;51.908;8.364;2024-03-06T08:58:07;10.20;77.00
66140;DHT22;52945;51.908;8.364;2024-03-06T09:01:09;10.20;76.90
66140;DHT22;52945;51.908;8.364;2024-03-06T09:04:10;10.20;76.70
66140;DHT22;52945;51.908;8.364;2024-03-06T09:07:13;10.20;76.60
66140;DHT22;52945;51.908;8.364;2024-03-06T09:10:14;10.20;76.50
66140;DHT22;52945;51.908;8.364;2024-03-06T09:13:15;10.20;76.40
66140;DHT22;52945;51.908;8.364;2024-03-06T09:16:15;10.30;76.30
66140;DHT22;52945;51.908;8.364;2024-03-06T09:19:18;10.30;76.30
66140;DHT22;52945;51.908;8.364;2024-03-06T09:22:19;10.40;76.30
66140;DHT22;52945;51.908;8.364;2024-03-06T09:25:20;10.40;76.40
66140;DHT22;52945;51.908;8.364;2024-03-06T09:28:20;10.50;76.50
66140;DHT22;52945;51.908;8.364;2024-03-06T09:31:22;10.50;76.50
66140;DHT22;52945;51.908;8.364;2024-03-06T09:34:23;10.60;76.50
66140;DHT22;52945;51.908;8.364;2024-03-06T09:37:24;10.60;76.50
66140;DHT22;52945;51.908;8.364;2024-03-06T09:40:24;10.60;76.00
66140;DHT22;52945;51.908;8.364;2024-03-06T09:43:25;10.70;76.30
66140;DHT22;52945;51.908;8.364;2024-03-06T09:46:26;10.60;75.70
66140;DHT22;52945;51.908;8.364;2024-03-06T09:49:27;10.70;75.80
66140;DHT22;52945;51.908;8.364;2024-03-06T09:52:30;10.80;75.80
66140;DHT22;52945;51.908;8.364;2024-03-06T09:55:33;10.90;75.80
66140;DHT22;52945;51.908;8.364;2024-03-06T09:58:35;10.90;75.70
66140;DHT22;52945;51.908;8.364;2024-03-06T10:01:40;10.90;75.70
66140;DHT22;52945;51.908;8.364;2024-03-06T10:04:43;11.00;75.20
66140;DHT22;52945;51.908;8.364;2024-03-06T10:07:44;11.10;74.80
66140;DHT22;52945;51.908;8.364;2024-03-06T10:10:48;11.10;75.00
66140;DHT22;52945;51.908;8.364;2024-03-06T10:13:52;11.20;75.40
66140;DHT22;52945;51.908;8.364;2024-03-06T10:19:56;11.20;73.60
66140;DHT22;52945;51.908;8.364;2024-03-06T10:22:59;11.30;73.80
66140;DHT22;52945;51.908;8.364;2024-03-06T10:25:59;11.40;73.80
66140;DHT22;52945;51.908;8.364;2024-03-06T10:29:00;11.40;73.80
66140;DHT22;52945;51.908;8.364;2024-03-06T10:32:02;11.50;73.50
66140;DHT22;52945;51.908;8.364;2024-03-06T10:35:03;11.60;72.60
66140;DHT22;52945;51.908;8.364;2024-03-06T10:38:05;11.50;72.10
66140;DHT22;52945;51.908;8.364;2024-03-06T10:41:07;11.60;72.00
66140;DHT22;52945;51.908;8.364;2024-03-06T10:44:11;11.70;73.10
66140;DHT22;52945;51.908;8.364;2024-03-06T10:47:15;11.80;73.30
66140;DHT22;52945;51.908;8.364;2024-03-06T10:50:18;11.80;73.00
66140;DHT22;52945;51.908;8.364;2024-03-06T10:53:19;11.90;72.20
66140;DHT22;52945;51.908;8.364;2024-03-06T10:56:21;11.90;72.20
66140;DHT22;52945;51.908;8.364;2024-03-06T10:59:26;12.00;71.80
66140;DHT22;52945;51.908;8.364;2024-03-06T11:02:28;12.00;71.10
66140;DHT22;52945;51.908;8.364;2024-03-06T11:05:29;12.00;70.20
66140;DHT22;52945;51.908;8.364;2024-03-06T11:08:30;12.00;69.70
66140;DHT22;52945;51.908;8.364;2024-03-06T11:11:47;12.00;70.20
66140;DHT22;52945;51.908;8.364;2024-03-06T11:14:50;12.00;70.80
66140;DHT22;52945;51.908;8.364;2024-03-06T11:17:52;12.10;70.80
66140;DHT22;52945;51.908;8.364;2024-03-06T11:24:15;12.10;70.20
66140;DHT22;52945;51.908;8.364;2024-03-06T11:27:16;12.20;70.30
66140;DHT22;52945;51.908;8.364;2024-03-06T11:30:19;12.20;70.40
66140;DHT22;52945;51.908;8.364;2024-03-06T11:33:21;12.20;70.00
66140;DHT22;52945;51.908;8.364;2024-03-06T11:36:23;12.20;69.90
66140;DHT22;52945;51.908;8.364;2024-03-06T11:39:29;12.20;70.20
66140;DHT22;52945;51.908;8.364;2024-03-06T11:42:36;12.20;70.10
66140;DHT22;52945;51.908;8.364;2024-03-06T11:45:44;12.10;69.30
66140;DHT22;52945;51.908;8.364;2024-03-06T11:48:51;12.10;69.30
66140;DHT22;52945;51.908;8.364;2024-03-06T11:51:52;12.00;69.70
66140;DHT22;52945;51.908;8.364;2024-03-06T11:54:56;12.00;69.40
66140;DHT22;52945;51.908;8.364;2024-03-06T11:57:57;11.90;69.70
66140;DHT22;52945;51.908;8.364;2024-03-06T12:00:57;11.90;70.00
66140;DHT22;52945;51.908;8.364;2024-03-06T12:03:58;11.90;70.60
66140;DHT22;52945;51.908;8.364;2024-03-06T12:06:59;12.00;70.40
66140;DHT22;52945;51.908;8.364;2024-03-06T12:10:00;11.90;70.00
66140;DHT22;52945;51.908;8.364;2024-03-06T12:13:01;11.90;70.40
66140;DHT22;52945;51.908;8.364;2024-03-06T12:16:08;12.00;70.60
66140;DHT22;52945;51.908;8.364;2024-03-06T12:19:09;11.90;70.10
66140;DHT22;52945;51.908;8.364;2024-03-06T12:22:11;11.90;70.50
66140;DHT22;52945;51.908;8.364;2024-03-06T12:25:25;11.90;71.00
66140;DHT22;52945;51.908;8.364;2024-03-06T12:28:26;11.90;71.10
66140;DHT22;52945;51.908;8.364;2024-03-06T12:31:26;11.80;71.00
66140;DHT22;52945;51.908;8.364;2024-03-06T12:34:27;11.80;71.30
66140;DHT22;52945;51.908;8.364;2024-03-06T12:37:32;11.80;71.50
66140;DHT22;52945;51.908;8.364;2024-03-06T12:40:33;11.80;71.80
66140;DHT22;52945;51.908;8.364;2024-03-06T12:43:33;11.80;71.80
66140;DHT22;52945;51.908;8.364;2024-03-06T12:46:35;11.70;71.80
66140;DHT22;52945;51.908;8.364;2024-03-06T12:49:35;11.60;72.20
66140;DHT22;52945;51.908;8.364;2024-03-06T12:52:36;11.60;72.50
66140;DHT22;52945;51.908;8.364;2024-03-06T12:55:37;11.70;72.70
66140;DHT22;52945;51.908;8.364;2024-03-06T12:58:37;11.70;72.80
66140;DHT22;52945;51.908;8.364;2024-03-06T13:01:38;11.70;71.70
66140;DHT22;52945;51.908;8.364;2024-03-06T13:04:39;11.70;72.10
66140;DHT22;52945;51.908;8.364;2024-03-06T13:07:39;11.70;72.30
66140;DHT22;52945;51.908;8.364;2024-03-06T13:10:42;11.70;72.10
66140;DHT22;52945;51.908;8.364;2024-03-06T13:13:43;11.70;72.40
66140;DHT22;52945;51.908;8.364;2024-03-06T13:16:44;11.70;72.20
66140;DHT22;52945;51.908;8.364;2024-03-06T13:19:44;11.80;72.40
66140;DHT22;52945;51.908;8.364;2024-03-06T13:22:45;11.80;71.90
66140;DHT22;52945;51.908;8.364;2024-03-06T13:25:46;11.90;72.10
66140;DHT22;52945;51.908;8.364;2024-03-06T13:28:46;12.00;72.00
66140;DHT22;52945;51.908;8.364;2024-03-06T13:31:47;11.70;71.40
66140;DHT22;52945;51.908;8.364;2024-03-06T13:34:48;11.90;71.10
66140;DHT22;52945;51.908;8.364;2024-03-06T13:37:48;11.90;71.20
66140;DHT22;52945;51.908;8.364;2024-03-06T13:40:52;11.90;70.70
66140;DHT22;52945;51.908;8.364;2024-03-06T13:43:53;11.80;71.10
66140;DHT22;52945;51.908;8.364;2024-03-06T13:46:54;11.90;71.60
66140;DHT22;52945;51.908;8.364;2024-03-06T13:49:54;11.90;70.70
66140;DHT22;52945;51.908;8.364;2024-03-06T13:52:56;11.90;71.10
66140;DHT22;52945;51.908;8.364;2024-03-06T13:55:56;12.00;71.20
66140;DHT22;52945;51.908;8.364;2024-03-06T13:58:57;12.10;70.50
66140;DHT22;52945;51.908;8.364;2024-03-06T14:01:58;12.20;70.40
66140;DHT22;52945;51.908;8.364;2024-03-06T14:04:59;12.20;70.60
66140;DHT22;52945;51.908;8.364;2024-03-06T14:08:00;12.30;70.40
66140;DHT22;52945;51.908;8.364;2024-03-06T14:11:01;12.30;69.00
66140;DHT22;52945;51.908;8.364;2024-03-06T14:14:04;12.20;69.50
66140;DHT22;52945;51.908;8.364;2024-03-06T14:17:05;12.30;70.00
66140;DHT22;52945;51.908;8.364;2024-03-06T14:20:06;12.40;69.90
66140;DHT22;52945;51.908;8.364;2024-03-06T14:23:06;12.50;69.90
66140;DHT22;52945;51.908;8.364;2024-03-06T14:26:08;12.40;69.00
66140;DHT22;52945;51.908;8.364;2024-03-06T14:29:08;12.50;69.10
66140;DHT22;52945;51.908;8.364;2024-03-06T14:32:09;12.60;69.40
66140;DHT22;52945;51.908;8.364;2024-03-06T14:35:10;12.60;69.30
66140;DHT22;52945;51.908;8.364;2024-03-06T14:38:11;12.70;69.60
66140;DHT22;52945;51.908;8.364;2024-03-06T14:41:13;12.70;68.40
66140;DHT22;52945;51.908;8.364;2024-03-06T14:44:14;12.70;68.10
66140;DHT22;52945;51.908;8.364;2024-03-06T14:47:15;12.70;68.10
66140;DHT22;52945;51.908;8.364;2024-03-06T14:50:16;12.70;67.90
66140;DHT22;52945;51.908;8.364;2024-03-06T14:53:16;12.70;67.20
66140;DHT22;52945;51.908;8.364;2024-03-06T14:56:17;12.70;66.90
66140;DHT22;52945;51.908;8.364;2024-03-06T14:59:19;12.70;66.60
66140;DHT22;52945;51.908;8.364;2024-03-06T15:02:19;12.70;67.00
66140;DHT22;52945;51.908;8.364;2024-03-06T15:05:20;12.70;66.70
66140;DHT22;52945;51.908;8.364;2024-03-06T15:08:21;12.60;66.30
66140;DHT22;52945;51.908;8.364;2024-03-06T15:11:22;12.60;66.50
66140;DHT22;52945;51.908;8.364;2024-03-06T15:14:24;12.60;66.90
66140;DHT22;52945;51.908;8.364;2024-03-06T15:17:25;12.60;67.50
66140;DHT22;52945;51.908;8.364;2024-03-06T15:20:28;12.60;67.20
66140;DHT22;52945;51.908;8.364;2024-03-06T15:23:29;12.70;67.70
66140;DHT22;52945;51.908;8.364;2024-03-06T15:26:31;12.70;68.00
66140;DHT22;52945;51.908;8.364;2024-03-06T15:29:32;12.70;67.90
66140;DHT22;52945;51.908;8.364;2024-03-06T15:32:33;12.70;67.50
66140;DHT22;52945;51.908;8.364;2024-03-06T15:35:34;12.70;67.50
66140;DHT22;52945;51.908;8.364;2024-03-06T15:38:35;12.70;67.30
66140;DHT22;52945;51.908;8.364;2024-03-06T15:41:36;12.70;67.50
66140;DHT22;52945;51.908;8.364;2024-03-06T15:44:36;12.70;67.10
66140;DHT22;52945;51.908;8.364;2024-03-06T15:47:37;12.70;67.30
66140;DHT22;52945;51.908;8.364;2024-03-06T15:50:39;12.70;67.00
66140;DHT22;52945;51.908;8.364;2024-03-06T15:53:39;12.70;67.60
66140;DHT22;52945;51.908;8.364;2024-03-06T15:56:40;12.70;68.00
66140;DHT22;52945;51.908;8.364;2024-03-06T15:59:41;12.70;68.10
66140;DHT22;52945;51.908;8.364;2024-03-06T16:02:42;12.80;68.30
66140;DHT22;52945;51.908;8.364;2024-03-06T16:05:43;12.80;67.60
66140;DHT22;52945;51.908;8.364;2024-03-06T16:08:43;12.90;66.60
66140;DHT22;52945;51.908;8.364;2024-03-06T16:11:44;12.90;66.70
66140;DHT22;52945;51.908;8.364;2024-03-06T16:14:44;13.00;66.50
66140;DHT22;52945;51.908;8.364;2024-03-06T16:17:45;13.00;67.00
66140;DHT22;52945;51.908;8.364;2024-03-06T16:20:46;13.10;67.30
66140;DHT22;52945;51.908;8.364;2024-03-06T16:23:48;13.00;66.10
66140;DHT22;52945;51.908;8.364;2024-03-06T16:26:48;12.80;66.00
66140;DHT22;52945;51.908;8.364;2024-03-06T16:29:49;12.80;66.00
66140;DHT22;52945;51.908;8.364;2024-03-06T16:32:51;12.60;66.30
66140;DHT22;52945;51.908;8.364;2024-03-06T16:35:52;12.60;66.90
66140;DHT22;52945;51.908;8.364;2024-03-06T16:38:52;12.70;67.20
66140;DHT22;52945;51.908;8.364;2024-03-06T16:41:53;12.70;66.90
66140;DHT22;52945;51.908;8.364;2024-03-06T16:44:53;12.60;66.60
66140;DHT22;52945;51.908;8.364;2024-03-06T16:47:54;12.60;66.80
66140;DHT22;52945;51.908;8.364;2024-03-06T16:51:00;12.60;66.70
66140;DHT22;52945;51.908;8.364;2024-03-06T16:54:01;12.60;66.60
66140;DHT22;52945;51.908;8.364;2024-03-06T16:57:03;12.60;66.50
66140;DHT22;52945;51.908;8.364;2024-03-06T17:00:05;12.40;66.30
66140;DHT22;52945;51.908;8.364;2024-03-06T17:03:05;12.30;66.20
66140;DHT22;52945;51.908;8.364;2024-03-06T17:06:06;12.20;66.20
66140;DHT22;52945;51.908;8.364;2024-03-06T17:09:07;12.10;66.40
66140;DHT22;52945;51.908;8.364;2024-03-06T17:12:08;12.00;66.80
66140;DHT22;52945;51.908;8.364;2024-03-06T17:15:09;12.00;66.80
66140;DHT22;52945;51.908;8.364;2024-03-06T17:18:10;11.90;66.80
66140;DHT22;52945;51.908;8.364;2024-03-06T17:21:11;12.00;67.10
66140;DHT22;52945;51.908;8.364;2024-03-06T17:24:12;12.00;67.20
66140;DHT22;52945;51.908;8.364;2024-03-06T17:27:13;11.90;67.30
66140;DHT22;52945;51.908;8.364;2024-03-06T17:30:13;11.90;67.20
66140;DHT22;52945;51.908;8.364;2024-03-06T17:33:16;11.80;66.70
66140;DHT22;52945;51.908;8.364;2024-03-06T17:36:17;11.60;67.00
66140;DHT22;52945;51.908;8.364;2024-03-06T17:39:17;11.60;67.50
66140;DHT22;52945;51.908;8.364;2024-03-06T17:42:18;11.60;67.60
66140;DHT22;52945;51.908;8.364;2024-03-06T17:45:19;11.50;67.30
66140;DHT22;52945;51.908;8.364;2024-03-06T17:48:19;11.50;67.50
66140;DHT22;52945;51.908;8.364;2024-03-06T17:51:30;11.50;67.50
66140;DHT22;52945;51.908;8.364;2024-03-06T17:54:32;11.40;68.00
66140;DHT22;52945;51.908;8.364;2024-03-06T17:57:34;11.40;67.70
66140;DHT22;52945;51.908;8.364;2024-03-06T18:00:34;11.40;67.70
66140;DHT22;52945;51.908;8.364;2024-03-06T18:03:35;11.30;67.80
66140;DHT22;52945;51.908;8.364;2024-03-06T18:06:36;11.30;67.80
66140;DHT22;52945;51.908;8.364;2024-03-06T18:09:36;11.30;68.00
66140;DHT22;52945;51.908;8.364;2024-03-06T18:12:37;11.30;68.20
66140;DHT22;52945;51.908;8.364;2024-03-06T18:15:38;11.30;68.20
66140;DHT22;52945;51.908;8.364;2024-03-06T18:18:38;11.30;68.20
66140;DHT22;52945;51.908;8.364;2024-03-06T18:21:45;11.30;68.30
66140;DHT22;52945;51.908;8.364;2024-03-06T18:24:46;11.20;68.20
66140;DHT22;52945;51.908;8.364;2024-03-06T18:27:46;11.20;67.90
66140;DHT22;52945;51.908;8.364;2024-03-06T18:30:47;11.20;68.00
66140;DHT22;52945;51.908;8.364;2024-03-06T18:33:47;11.20;68.00
66140;DHT22;52945;51.908;8.364;2024-03-06T18:36:48;11.20;67.90
66140;DHT22;52945;51.908;8.364;2024-03-06T18:39:49;11.30;68.10
66140;DHT22;52945;51.908;8.364;2024-03-06T18:42:49;11.20;67.90
66140;DHT22;52945;51.908;8.364;2024-03-06T18:45:50;11.20;67.50
66140;DHT22;52945;51.908;8.364;2024-03-06T18:48:51;11.20;67.40
66140;DHT22;52945;51.908;8.364;2024-03-06T18:51:52;11.20;67.20
66140;DHT22;52945;51.908;8.364;2024-03-06T18:54:53;11.20;67.20
66140;DHT22;52945;51.908;8.364;2024-03-06T18:57:53;11.20;67.20
66140;DHT22;52945;51.908;8.364;2024-03-06T19:00:54;11.20;67.20
66140;DHT22;52945;51.908;8.364;2024-03-06T19:03:54;11.20;67.20
66140;DHT22;52945;51.908;8.364;2024-03-06T19:06:55;11.10;67.00
66140;DHT22;52945;51.908;8.364;2024-03-06T19:09:56;11.20;67.50
66140;DHT22;52945;51.908;8.364;2024-03-06T19:12:57;11.20;67.60
66140;DHT22;52945;51.908;8.364;2024-03-06T19:15:57;11.10;67.30
66140;DHT22;52945;51.908;8.364;2024-03-06T19:18:58;11.10;67.20